sensor_id;sensor_type;location;lat;lon;timestamp;P1;durP1;ratioP1;P2;durP2;ratioP2
55417;SDS011;41287;47.554;7.844;2023-02-15T00:01:15;8.98;;;4.65;;
55417;SDS011;41287;47.554;7.844;2023-02-15T00:03:40;6.57;;;4.07;;
55417;SDS011;41287;47.554;7.844;2023-02-15T00:06:05;7.15;;;4.30;;
55417;SDS011;41287;47.554;7.844;2023-02-15T00:08:31;7.72;;;4.50;;
55417;SDS011;41287;47.554;7.844;2023-02-15T00:11:10;7.30;;;4.32;;
55417;SDS011;41287;47.554;7.844;2023-02-15T00:13:38;7.00;;;4.03;;
55417;SDS011;41287;47.554;7.844;2023-02-15T00:16:07;8.32;;;4.40;;
55417;SDS011;41287;47.554;7.844;2023-02-15T00:18:37;6.55;;;4.50;;
55417;SDS011;41287;47.554;7.844;2023-02-15T00:21:04;8.20;;;4.70;;
55417;SDS011;41287;47.554;7.844;2023-02-15T00:23:36;8.20;;;4.45;;
55417;SDS011;41287;47.554;7.844;2023-02-15T00:26:11;8.00;;;4.65;;
55417;SDS011;41287;47.554;7.844;2023-02-15T00:28:37;6.70;;;4.03;;
55417;SDS011;41287;47.554;7.844;2023-02-15T00:31:10;7.55;;;4.18;;
55417;SDS011;41287;47.554;7.844;2023-02-15T00:33:37;7.32;;;4.35;;
55417;SDS011;41287;47.554;7.844;2023-02-15T00:36:04;6.00;;;4.20;;
55417;SDS011;41287;47.554;7.844;2023-02-15T00:38:30;6.55;;;4.32;;
55417;SDS011;41287;47.554;7.844;2023-02-15T00:40:57;7.50;;;4.18;;
55417;SDS011;41287;47.554;7.844;2023-02-15T00:43:24;8.20;;;4.55;;
55417;SDS011;41287;47.554;7.844;2023-02-15T00:45:50;6.00;;;4.03;;
55417;SDS011;41287;47.554;7.844;2023-02-15T00:48:16;6.85;;;4.28;;
55417;SDS011;41287;47.554;7.844;2023-02-15T00:50:45;6.00;;;4.00;;
55417;SDS011;41287;47.554;7.844;2023-02-15T00:53:17;6.07;;;3.83;;
55417;SDS011;41287;47.554;7.844;2023-02-15T00:55:42;7.68;;;4.10;;
55417;SDS011;41287;47.554;7.844;2023-02-15T00:58:09;6.90;;;4.47;;
55417;SDS011;41287;47.554;7.844;2023-02-15T01:00:35;7.28;;;4.57;;
55417;SDS011;41287;47.554;7.844;2023-02-15T01:03:05;7.18;;;3.88;;
55417;SDS011;41287;47.554;7.844;2023-02-15T01:05:30;6.07;;;3.88;;
55417;SDS011;41287;47.554;7.844;2023-02-15T01:07:57;6.15;;;4.00;;
55417;SDS011;41287;47.554;7.844;2023-02-15T01:10:23;7.55;;;3.90;;
55417;SDS011;41287;47.554;7.844;2023-02-15T01:12:49;8.45;;;4.30;;
55417;SDS011;41287;47.554;7.844;2023-02-15T01:15:15;6.78;;;4.10;;
55417;SDS011;41287;47.554;7.844;2023-02-15T01:17:40;5.32;;;3.70;;
55417;SDS011;41287;47.554;7.844;2023-02-15T01:20:06;5.65;;;3.58;;
55417;SDS011;41287;47.554;7.844;2023-02-15T01:22:32;6.20;;;4.03;;
55417;SDS011;41287;47.554;7.844;2023-02-15T01:24:59;5.90;;;3.70;;
55417;SDS011;41287;47.554;7.844;2023-02-15T01:27:25;6.45;;;3.60;;
55417;SDS011;41287;47.554;7.844;2023-02-15T01:29:50;5.65;;;3.80;;
55417;SDS011;41287;47.554;7.844;2023-02-15T01:32:15;6.43;;;3.90;;
55417;SDS011;41287;47.554;7.844;2023-02-15T01:34:40;6.57;;;4.15;;
55417;SDS011;41287;47.554;7.844;2023-02-15T01:37:08;7.18;;;4.20;;
55417;SDS011;41287;47.554;7.844;2023-02-15T01:39:33;6.15;;;3.25;;
55417;SDS011;41287;47.554;7.844;2023-02-15T01:41:58;6.68;;;3.90;;
55417;SDS011;41287;47.554;7.844;2023-02-15T01:47:07;5.47;;;3.95;;
55417;SDS011;41287;47.554;7.844;2023-02-15T01:49:35;6.38;;;4.28;;
55417;SDS011;41287;47.554;7.844;2023-02-15T01:52:02;6.95;;;4.00;;
55417;SDS011;41287;47.554;7.844;2023-02-15T01:54:29;6.65;;;3.80;;
55417;SDS011;41287;47.554;7.844;2023-02-15T01:56:58;6.47;;;3.88;;
55417;SDS011;41287;47.554;7.844;2023-02-15T01:59:27;6.60;;;4.05;;
55417;SDS011;41287;47.554;7.844;2023-02-15T02:01:54;5.03;;;3.25;;
55417;SDS011;41287;47.554;7.844;2023-02-15T02:04:25;5.97;;;3.60;;
55417;SDS011;41287;47.554;7.844;2023-02-15T02:06:57;6.18;;;3.63;;
55417;SDS011;41287;47.554;7.844;2023-02-15T02:09:24;6.03;;;3.70;;
55417;SDS011;41287;47.554;7.844;2023-02-15T02:11:50;5.20;;;3.38;;
55417;SDS011;41287;47.554;7.844;2023-02-15T02:14:16;5.60;;;3.40;;
55417;SDS011;41287;47.554;7.844;2023-02-15T02:19:22;5.10;;;3.70;;
55417;SDS011;41287;47.554;7.844;2023-02-15T02:32:55;5.68;;;3.83;;
55417;SDS011;41287;47.554;7.844;2023-02-15T02:37:57;4.63;;;3.33;;
55417;SDS011;41287;47.554;7.844;2023-02-15T02:43:39;6.47;;;3.50;;
55417;SDS011;41287;47.554;7.844;2023-02-15T02:46:15;6.07;;;3.60;;
55417;SDS011;41287;47.554;7.844;2023-02-15T02:48:46;5.88;;;3.65;;
55417;SDS011;41287;47.554;7.844;2023-02-15T02:51:14;5.93;;;3.58;;
55417;SDS011;41287;47.554;7.844;2023-02-15T02:53:46;6.70;;;3.80;;
55417;SDS011;41287;47.554;7.844;2023-02-15T02:56:17;5.80;;;3.53;;
55417;SDS011;41287;47.554;7.844;2023-02-15T02:58:52;5.75;;;3.38;;
55417;SDS011;41287;47.554;7.844;2023-02-15T03:01:34;5.60;;;3.50;;
55417;SDS011;41287;47.554;7.844;2023-02-15T03:04:14;5.25;;;3.20;;
55417;SDS011;41287;47.554;7.844;2023-02-15T03:06:52;5.80;;;3.20;;
55417;SDS011;41287;47.554;7.844;2023-02-15T03:09:25;5.18;;;3.13;;
55417;SDS011;41287;47.554;7.844;2023-02-15T03:12:06;5.40;;;3.28;;
55417;SDS011;41287;47.554;7.844;2023-02-15T03:14:34;6.25;;;3.90;;
55417;SDS011;41287;47.554;7.844;2023-02-15T03:17:00;4.53;;;3.10;;
55417;SDS011;41287;47.554;7.844;2023-02-15T03:19:29;4.85;;;3.13;;
55417;SDS011;41287;47.554;7.844;2023-02-15T03:22:00;6.50;;;3.95;;
55417;SDS011;41287;47.554;7.844;2023-02-15T03:27:25;5.95;;;3.58;;
55417;SDS011;41287;47.554;7.844;2023-02-15T03:29:56;5.05;;;3.42;;
55417;SDS011;41287;47.554;7.844;2023-02-15T03:32:24;5.50;;;3.28;;
55417;SDS011;41287;47.554;7.844;2023-02-15T03:34:53;5.22;;;3.40;;
55417;SDS011;41287;47.554;7.844;2023-02-15T03:45:59;4.28;;;3.15;;
55417;SDS011;41287;47.554;7.844;2023-02-15T03:48:54;5.10;;;3.05;;
55417;SDS011;41287;47.554;7.844;2023-02-15T03:51:23;5.13;;;3.20;;
55417;SDS011;41287;47.554;7.844;2023-02-15T03:54:00;4.53;;;3.10;;
55417;SDS011;41287;47.554;7.844;2023-02-15T03:57:07;5.45;;;3.25;;
55417;SDS011;41287;47.554;7.844;2023-02-15T03:59:58;6.28;;;3.15;;
55417;SDS011;41287;47.554;7.844;2023-02-15T04:05:35;7.05;;;3.60;;
55417;SDS011;41287;47.554;7.844;2023-02-15T04:08:01;6.03;;;3.42;;
55417;SDS011;41287;47.554;7.844;2023-02-15T04:10:27;5.53;;;3.50;;
55417;SDS011;41287;47.554;7.844;2023-02-15T04:13:11;6.70;;;2.92;;
55417;SDS011;41287;47.554;7.844;2023-02-15T04:15:40;4.72;;;2.80;;
55417;SDS011;41287;47.554;7.844;2023-02-15T04:18:23;4.15;;;2.67;;
55417;SDS011;41287;47.554;7.844;2023-02-15T04:21:08;6.72;;;2.90;;
55417;SDS011;41287;47.554;7.844;2023-02-15T04:26:37;5.05;;;2.10;;
55417;SDS011;41287;47.554;7.844;2023-02-15T04:29:02;4.25;;;2.28;;
55417;SDS011;41287;47.554;7.844;2023-02-15T04:31:27;3.22;;;2.30;;
55417;SDS011;41287;47.554;7.844;2023-02-15T04:33:53;4.85;;;2.30;;
55417;SDS011;41287;47.554;7.844;2023-02-15T04:36:18;5.05;;;2.30;;
55417;SDS011;41287;47.554;7.844;2023-02-15T04:38:44;3.92;;;2.33;;
55417;SDS011;41287;47.554;7.844;2023-02-15T04:41:09;5.45;;;2.33;;
55417;SDS011;41287;47.554;7.844;2023-02-15T04:43:38;4.47;;;2.38;;
55417;SDS011;41287;47.554;7.844;2023-02-15T04:46:03;4.05;;;2.53;;
55417;SDS011;41287;47.554;7.844;2023-02-15T04:48:29;4.13;;;2.72;;
55417;SDS011;41287;47.554;7.844;2023-02-15T04:50:55;7.55;;;2.60;;
55417;SDS011;41287;47.554;7.844;2023-02-15T04:53:23;7.45;;;2.97;;
55417;SDS011;41287;47.554;7.844;2023-02-15T04:55:48;6.60;;;2.72;;
55417;SDS011;41287;47.554;7.844;2023-02-15T04:58:14;5.70;;;3.00;;
55417;SDS011;41287;47.554;7.844;2023-02-15T05:00:39;8.52;;;3.35;;
55417;SDS011;41287;47.554;7.844;2023-02-15T05:03:04;6.32;;;2.90;;
55417;SDS011;41287;47.554;7.844;2023-02-15T05:05:30;4.75;;;2.80;;
55417;SDS011;41287;47.554;7.844;2023-02-15T05:07:55;4.50;;;2.70;;
55417;SDS011;41287;47.554;7.844;2023-02-15T05:10:20;6.03;;;2.85;;
55417;SDS011;41287;47.554;7.844;2023-02-15T05:12:46;4.90;;;3.05;;
55417;SDS011;41287;47.554;7.844;2023-02-15T05:15:11;6.07;;;3.00;;
55417;SDS011;41287;47.554;7.844;2023-02-15T05:17:37;5.43;;;2.88;;
55417;SDS011;41287;47.554;7.844;2023-02-15T05:20:02;4.85;;;2.85;;
55417;SDS011;41287;47.554;7.844;2023-02-15T05:22:28;5.78;;;2.85;;
55417;SDS011;41287;47.554;7.844;2023-02-15T05:24:54;4.70;;;3.17;;
55417;SDS011;41287;47.554;7.844;2023-02-15T05:27:37;7.10;;;3.20;;
55417;SDS011;41287;47.554;7.844;2023-02-15T05:30:24;5.80;;;3.38;;
55417;SDS011;41287;47.554;7.844;2023-02-15T05:32:50;4.85;;;2.92;;
55417;SDS011;41287;47.554;7.844;2023-02-15T05:35:15;5.53;;;2.97;;
55417;SDS011;41287;47.554;7.844;2023-02-15T05:37:41;4.60;;;2.80;;
55417;SDS011;41287;47.554;7.844;2023-02-15T05:40:07;5.70;;;3.40;;
55417;SDS011;41287;47.554;7.844;2023-02-15T05:42:32;5.40;;;2.80;;
55417;SDS011;41287;47.554;7.844;2023-02-15T05:45:03;5.07;;;3.00;;
55417;SDS011;41287;47.554;7.844;2023-02-15T05:47:30;5.60;;;3.35;;
55417;SDS011;41287;47.554;7.844;2023-02-15T05:49:55;5.82;;;2.95;;
55417;SDS011;41287;47.554;7.844;2023-02-15T05:52:21;4.88;;;3.17;;
55417;SDS011;41287;47.554;7.844;2023-02-15T05:54:46;3.70;;;2.58;;
55417;SDS011;41287;47.554;7.844;2023-02-15T05:57:11;5.57;;;3.17;;
55417;SDS011;41287;47.554;7.844;2023-02-15T05:59:39;4.32;;;2.60;;
55417;SDS011;41287;47.554;7.844;2023-02-15T06:02:04;4.60;;;2.67;;
55417;SDS011;41287;47.554;7.844;2023-02-15T06:04:31;5.40;;;3.10;;
55417;SDS011;41287;47.554;7.844;2023-02-15T06:06:56;5.78;;;3.10;;
55417;SDS011;41287;47.554;7.844;2023-02-15T06:09:23;4.47;;;2.55;;
55417;SDS011;41287;47.554;7.844;2023-02-15T06:11:49;4.78;;;2.65;;
55417;SDS011;41287;47.554;7.844;2023-02-15T06:14:14;4.65;;;2.70;;
55417;SDS011;41287;47.554;7.844;2023-02-15T06:16:39;3.72;;;2.72;;
55417;SDS011;41287;47.554;7.844;2023-02-15T06:19:05;4.78;;;2.35;;
55417;SDS011;41287;47.554;7.844;2023-02-15T06:21:30;4.57;;;2.65;;
55417;SDS011;41287;47.554;7.844;2023-02-15T06:23:55;4.00;;;2.72;;
55417;SDS011;41287;47.554;7.844;2023-02-15T06:26:21;6.45;;;3.17;;
55417;SDS011;41287;47.554;7.844;2023-02-15T06:28:47;9.13;;;3.10;;
55417;SDS011;41287;47.554;7.844;2023-02-15T06:31:12;5.55;;;2.67;;
55417;SDS011;41287;47.554;7.844;2023-02-15T06:33:37;4.38;;;3.03;;
55417;SDS011;41287;47.554;7.844;2023-02-15T06:36:03;4.53;;;3.15;;
55417;SDS011;41287;47.554;7.844;2023-02-15T06:38:29;8.57;;;3.30;;
55417;SDS011;41287;47.554;7.844;2023-02-15T06:40:56;5.88;;;2.80;;
55417;SDS011;41287;47.554;7.844;2023-02-15T06:43:22;5.35;;;3.10;;
55417;SDS011;41287;47.554;7.844;2023-02-15T06:45:47;5.70;;;3.20;;
55417;SDS011;41287;47.554;7.844;2023-02-15T06:48:12;5.25;;;3.08;;
55417;SDS011;41287;47.554;7.844;2023-02-15T06:50:38;5.70;;;3.08;;
55417;SDS011;41287;47.554;7.844;2023-02-15T06:53:03;5.22;;;3.15;;
55417;SDS011;41287;47.554;7.844;2023-02-15T06:55:31;6.00;;;3.25;;
55417;SDS011;41287;47.554;7.844;2023-02-15T06:57:56;10.05;;;3.80;;
55417;SDS011;41287;47.554;7.844;2023-02-15T07:00:22;6.25;;;3.58;;
55417;SDS011;41287;47.554;7.844;2023-02-15T07:02:49;5.95;;;3.33;;
55417;SDS011;41287;47.554;7.844;2023-02-15T07:05:20;6.30;;;3.40;;
55417;SDS011;41287;47.554;7.844;2023-02-15T07:07:46;5.50;;;2.83;;
55417;SDS011;41287;47.554;7.844;2023-02-15T07:10:11;4.82;;;2.90;;
55417;SDS011;41287;47.554;7.844;2023-02-15T07:12:36;6.07;;;3.92;;
55417;SDS011;41287;47.554;7.844;2023-02-15T07:15:09;4.72;;;3.10;;
55417;SDS011;41287;47.554;7.844;2023-02-15T07:17:36;4.47;;;2.90;;
55417;SDS011;41287;47.554;7.844;2023-02-15T07:20:05;5.30;;;2.95;;
55417;SDS011;41287;47.554;7.844;2023-02-15T07:22:33;4.55;;;3.13;;
55417;SDS011;41287;47.554;7.844;2023-02-15T07:25:01;8.77;;;3.47;;
55417;SDS011;41287;47.554;7.844;2023-02-15T07:27:26;5.90;;;3.35;;
55417;SDS011;41287;47.554;7.844;2023-02-15T07:29:51;4.45;;;2.95;;
55417;SDS011;41287;47.554;7.844;2023-02-15T07:32:17;4.80;;;2.72;;
55417;SDS011;41287;47.554;7.844;2023-02-15T07:34:42;4.40;;;2.83;;
55417;SDS011;41287;47.554;7.844;2023-02-15T07:37:07;5.65;;;2.72;;
55417;SDS011;41287;47.554;7.844;2023-02-15T07:39:33;6.35;;;3.38;;
55417;SDS011;41287;47.554;7.844;2023-02-15T07:41:59;5.45;;;3.05;;
55417;SDS011;41287;47.554;7.844;2023-02-15T07:44:25;4.55;;;2.80;;
55417;SDS011;41287;47.554;7.844;2023-02-15T07:46:50;5.47;;;3.13;;
55417;SDS011;41287;47.554;7.844;2023-02-15T07:49:16;5.05;;;3.03;;
55417;SDS011;41287;47.554;7.844;2023-02-15T07:51:41;4.38;;;2.78;;
55417;SDS011;41287;47.554;7.844;2023-02-15T07:54:06;3.88;;;2.67;;
55417;SDS011;41287;47.554;7.844;2023-02-15T07:56:35;4.60;;;3.05;;
55417;SDS011;41287;47.554;7.844;2023-02-15T07:59:00;4.15;;;2.42;;
55417;SDS011;41287;47.554;7.844;2023-02-15T08:01:32;4.47;;;3.08;;
55417;SDS011;41287;47.554;7.844;2023-02-15T08:04:02;5.15;;;3.40;;
55417;SDS011;41287;47.554;7.844;2023-02-15T08:06:29;4.93;;;2.95;;
55417;SDS011;41287;47.554;7.844;2023-02-15T08:08:57;4.40;;;2.67;;
55417;SDS011;41287;47.554;7.844;2023-02-15T08:11:26;4.18;;;2.65;;
55417;SDS011;41287;47.554;7.844;2023-02-15T08:14:01;3.47;;;2.50;;
55417;SDS011;41287;47.554;7.844;2023-02-15T08:16:36;5.53;;;3.20;;
55417;SDS011;41287;47.554;7.844;2023-02-15T08:19:19;4.47;;;2.63;;
55417;SDS011;41287;47.554;7.844;2023-02-15T08:21:51;3.75;;;2.55;;
55417;SDS011;41287;47.554;7.844;2023-02-15T08:24:19;5.15;;;3.15;;
55417;SDS011;41287;47.554;7.844;2023-02-15T08:26:46;5.38;;;2.33;;
55417;SDS011;41287;47.554;7.844;2023-02-15T08:29:13;4.13;;;2.70;;
55417;SDS011;41287;47.554;7.844;2023-02-15T08:31:40;5.82;;;3.40;;
55417;SDS011;41287;47.554;7.844;2023-02-15T08:34:06;4.88;;;2.95;;
55417;SDS011;41287;47.554;7.844;2023-02-15T08:36:38;4.60;;;3.00;;
55417;SDS011;41287;47.554;7.844;2023-02-15T08:39:04;4.05;;;2.70;;
55417;SDS011;41287;47.554;7.844;2023-02-15T08:41:31;3.53;;;2.25;;
55417;SDS011;41287;47.554;7.844;2023-02-15T08:44:00;3.92;;;2.58;;
55417;SDS011;41287;47.554;7.844;2023-02-15T08:46:29;4.75;;;2.83;;
55417;SDS011;41287;47.554;7.844;2023-02-15T08:48:57;4.93;;;2.83;;
55417;SDS011;41287;47.554;7.844;2023-02-15T08:51:23;4.47;;;2.40;;
55417;SDS011;41287;47.554;7.844;2023-02-15T08:53:54;4.28;;;2.75;;
55417;SDS011;41287;47.554;7.844;2023-02-15T08:56:22;4.32;;;2.63;;
55417;SDS011;41287;47.554;7.844;2023-02-15T08:58:50;3.78;;;2.47;;
55417;SDS011;41287;47.554;7.844;2023-02-15T09:01:18;4.10;;;2.58;;
55417;SDS011;41287;47.554;7.844;2023-02-15T09:03:47;3.15;;;2.38;;
55417;SDS011;41287;47.554;7.844;2023-02-15T09:06:14;4.65;;;2.65;;
55417;SDS011;41287;47.554;7.844;2023-02-15T09:08:41;4.55;;;2.55;;
55417;SDS011;41287;47.554;7.844;2023-02-15T09:11:07;4.93;;;2.55;;
55417;SDS011;41287;47.554;7.844;2023-02-15T09:13:35;4.28;;;2.50;;
55417;SDS011;41287;47.554;7.844;2023-02-15T09:16:02;3.35;;;2.40;;
55417;SDS011;41287;47.554;7.844;2023-02-15T09:18:30;3.50;;;2.63;;
55417;SDS011;41287;47.554;7.844;2023-02-15T09:20:56;3.90;;;2.80;;
55417;SDS011;41287;47.554;7.844;2023-02-15T09:23:28;4.55;;;2.28;;
55417;SDS011;41287;47.554;7.844;2023-02-15T09:25:53;3.65;;;2.40;;
55417;SDS011;41287;47.554;7.844;2023-02-15T09:28:18;3.30;;;2.00;;
55417;SDS011;41287;47.554;7.844;2023-02-15T09:30:44;4.40;;;2.20;;
55417;SDS011;41287;47.554;7.844;2023-02-15T09:33:12;3.75;;;2.53;;
55417;SDS011;41287;47.554;7.844;2023-02-15T09:35:37;4.78;;;2.53;;
55417;SDS011;41287;47.554;7.844;2023-02-15T09:38:03;3.17;;;2.25;;
55417;SDS011;41287;47.554;7.844;2023-02-15T09:40:28;4.13;;;2.40;;
55417;SDS011;41287;47.554;7.844;2023-02-15T09:43:08;3.22;;;2.10;;
55417;SDS011;41287;47.554;7.844;2023-02-15T09:48:41;5.40;;;2.58;;
55417;SDS011;41287;47.554;7.844;2023-02-15T09:51:13;3.15;;;2.22;;
55417;SDS011;41287;47.554;7.844;2023-02-15T10:01:25;3.28;;;2.40;;
55417;SDS011;41287;47.554;7.844;2023-02-15T10:06:59;3.80;;;2.20;;
55417;SDS011;41287;47.554;7.844;2023-02-15T10:12:47;5.03;;;2.95;;
55417;SDS011;41287;47.554;7.844;2023-02-15T10:26:48;2.80;;;2.30;;
55417;SDS011;41287;47.554;7.844;2023-02-15T10:29:21;3.50;;;2.30;;
55417;SDS011;41287;47.554;7.844;2023-02-15T10:31:55;4.10;;;2.25;;
55417;SDS011;41287;47.554;7.844;2023-02-15T10:34:34;3.67;;;2.33;;
55417;SDS011;41287;47.554;7.844;2023-02-15T10:37:10;4.13;;;2.30;;
55417;SDS011;41287;47.554;7.844;2023-02-15T10:40:40;3.80;;;2.47;;
55417;SDS011;41287;47.554;7.844;2023-02-15T10:52:42;3.47;;;2.10;;
55417;SDS011;41287;47.554;7.844;2023-02-15T10:57:53;2.72;;;2.03;;
55417;SDS011;41287;47.554;7.844;2023-02-15T11:00:34;3.33;;;1.77;;
55417;SDS011;41287;47.554;7.844;2023-02-15T11:08:32;2.75;;;1.85;;
55417;SDS011;41287;47.554;7.844;2023-02-15T11:11:02;2.88;;;2.03;;
55417;SDS011;41287;47.554;7.844;2023-02-15T11:13:44;3.08;;;2.03;;
55417;SDS011;41287;47.554;7.844;2023-02-15T11:16:16;4.03;;;2.17;;
55417;SDS011;41287;47.554;7.844;2023-02-15T11:21:39;2.65;;;2.10;;
55417;SDS011;41287;47.554;7.844;2023-02-15T11:24:17;2.85;;;2.05;;
55417;SDS011;41287;47.554;7.844;2023-02-15T11:27:04;3.13;;;2.13;;
55417;SDS011;41287;47.554;7.844;2023-02-15T11:29:34;3.58;;;2.22;;
55417;SDS011;41287;47.554;7.844;2023-02-15T11:32:11;3.40;;;2.15;;
55417;SDS011;41287;47.554;7.844;2023-02-15T11:34:49;3.53;;;2.28;;
55417;SDS011;41287;47.554;7.844;2023-02-15T11:37:19;2.97;;;2.00;;
55417;SDS011;41287;47.554;7.844;2023-02-15T11:39:50;3.40;;;2.22;;
55417;SDS011;41287;47.554;7.844;2023-02-15T11:42:20;4.35;;;2.35;;
55417;SDS011;41287;47.554;7.844;2023-02-15T11:47:43;2.97;;;2.22;;
55417;SDS011;41287;47.554;7.844;2023-02-15T11:50:16;3.60;;;2.13;;
55417;SDS011;41287;47.554;7.844;2023-02-15T11:52:47;3.38;;;2.20;;
55417;SDS011;41287;47.554;7.844;2023-02-15T11:55:14;2.72;;;2.17;;
55417;SDS011;41287;47.554;7.844;2023-02-15T11:57:46;4.47;;;1.92;;
55417;SDS011;41287;47.554;7.844;2023-02-15T12:00:40;3.28;;;2.30;;
55417;SDS011;41287;47.554;7.844;2023-02-15T12:06:10;3.88;;;2.53;;
55417;SDS011;41287;47.554;7.844;2023-02-15T12:08:42;4.47;;;2.60;;
55417;SDS011;41287;47.554;7.844;2023-02-15T12:11:35;3.63;;;2.20;;
55417;SDS011;41287;47.554;7.844;2023-02-15T12:16:42;3.90;;;2.70;;
55417;SDS011;41287;47.554;7.844;2023-02-15T12:21:56;3.90;;;2.38;;
55417;SDS011;41287;47.554;7.844;2023-02-15T12:24:30;2.97;;;1.90;;
55417;SDS011;41287;47.554;7.844;2023-02-15T12:27:05;3.15;;;2.20;;
55417;SDS011;41287;47.554;7.844;2023-02-15T12:29:40;2.78;;;2.30;;
55417;SDS011;41287;47.554;7.844;2023-02-15T12:32:17;3.15;;;1.95;;
55417;SDS011;41287;47.554;7.844;2023-02-15T12:34:47;3.15;;;2.40;;
55417;SDS011;41287;47.554;7.844;2023-02-15T12:37:20;4.13;;;2.38;;
55417;SDS011;41287;47.554;7.844;2023-02-15T12:39:59;3.28;;;2.40;;
55417;SDS011;41287;47.554;7.844;2023-02-15T12:42:28;4.50;;;2.47;;
55417;SDS011;41287;47.554;7.844;2023-02-15T12:45:20;3.90;;;2.30;;
55417;SDS011;41287;47.554;7.844;2023-02-15T12:48:09;3.08;;;2.15;;
55417;SDS011;41287;47.554;7.844;2023-02-15T12:50:41;3.95;;;2.20;;
55417;SDS011;41287;47.554;7.844;2023-02-15T12:53:18;3.35;;;2.10;;
55417;SDS011;41287;47.554;7.844;2023-02-15T12:55:55;4.30;;;2.60;;
55417;SDS011;41287;47.554;7.844;2023-02-15T12:58:25;2.97;;;2.30;;
55417;SDS011;41287;47.554;7.844;2023-02-15T13:01:02;3.83;;;1.98;;
55417;SDS011;41287;47.554;7.844;2023-02-15T13:03:38;3.80;;;2.50;;
55417;SDS011;41287;47.554;7.844;2023-02-15T13:06:19;4.13;;;2.30;;
55417;SDS011;41287;47.554;7.844;2023-02-15T13:08:46;3.35;;;2.22;;
55417;SDS011;41287;47.554;7.844;2023-02-15T13:11:19;3.83;;;2.50;;
55417;SDS011;41287;47.554;7.844;2023-02-15T13:16:19;3.17;;;2.40;;
55417;SDS011;41287;47.554;7.844;2023-02-15T13:18:54;4.45;;;2.08;;
55417;SDS011;41287;47.554;7.844;2023-02-15T13:21:30;4.25;;;2.30;;
55417;SDS011;41287;47.554;7.844;2023-02-15T13:24:05;5.10;;;2.30;;
55417;SDS011;41287;47.554;7.844;2023-02-15T13:26:38;3.22;;;2.25;;
55417;SDS011;41287;47.554;7.844;2023-02-15T13:29:12;4.13;;;2.10;;
55417;SDS011;41287;47.554;7.844;2023-02-15T13:31:43;3.17;;;2.40;;
55417;SDS011;41287;47.554;7.844;2023-02-15T13:34:12;2.97;;;2.10;;
55417;SDS011;41287;47.554;7.844;2023-02-15T13:42:24;4.15;;;2.20;;
55417;SDS011;41287;47.554;7.844;2023-02-15T13:53:51;3.45;;;2.25;;
55417;SDS011;41287;47.554;7.844;2023-02-15T14:05:15;2.90;;;2.13;;
55417;SDS011;41287;47.554;7.844;2023-02-15T14:08:00;3.25;;;2.05;;
55417;SDS011;41287;47.554;7.844;2023-02-15T14:10:43;2.70;;;1.98;;
55417;SDS011;41287;47.554;7.844;2023-02-15T14:13:33;2.47;;;1.75;;
55417;SDS011;41287;47.554;7.844;2023-02-15T14:21:31;3.30;;;2.25;;
55417;SDS011;41287;47.554;7.844;2023-02-15T14:24:17;3.35;;;2.38;;
55417;SDS011;41287;47.554;7.844;2023-02-15T14:27:04;3.75;;;2.00;;
55417;SDS011;41287;47.554;7.844;2023-02-15T14:29:47;3.38;;;2.10;;
55417;SDS011;41287;47.554;7.844;2023-02-15T14:32:34;3.17;;;1.95;;
55417;SDS011;41287;47.554;7.844;2023-02-15T14:35:04;5.05;;;2.25;;
55417;SDS011;41287;47.554;7.844;2023-02-15T14:48:55;3.28;;;2.40;;
55417;SDS011;41287;47.554;7.844;2023-02-15T14:54:10;3.22;;;2.10;;
55417;SDS011;41287;47.554;7.844;2023-02-15T14:59:25;3.92;;;1.90;;
55417;SDS011;41287;47.554;7.844;2023-02-15T15:01:58;2.78;;;2.15;;
55417;SDS011;41287;47.554;7.844;2023-02-15T15:04:43;3.03;;;2.00;;
55417;SDS011;41287;47.554;7.844;2023-02-15T15:07:21;2.63;;;2.13;;
55417;SDS011;41287;47.554;7.844;2023-02-15T15:09:59;3.03;;;2.08;;
55417;SDS011;41287;47.554;7.844;2023-02-15T15:12:41;2.60;;;2.08;;
55417;SDS011;41287;47.554;7.844;2023-02-15T15:15:10;3.30;;;2.08;;
55417;SDS011;41287;47.554;7.844;2023-02-15T15:20:05;2.97;;;2.17;;
55417;SDS011;41287;47.554;7.844;2023-02-15T15:22:34;2.88;;;1.90;;
55417;SDS011;41287;47.554;7.844;2023-02-15T15:25:02;3.20;;;2.08;;
55417;SDS011;41287;47.554;7.844;2023-02-15T15:41:10;2.92;;;1.98;;
55417;SDS011;41287;47.554;7.844;2023-02-15T15:46:47;3.00;;;2.35;;
55417;SDS011;41287;47.554;7.844;2023-02-15T15:49:31;3.78;;;2.22;;
55417;SDS011;41287;47.554;7.844;2023-02-15T15:52:00;2.63;;;1.80;;
55417;SDS011;41287;47.554;7.844;2023-02-15T15:54:27;2.70;;;2.13;;
55417;SDS011;41287;47.554;7.844;2023-02-15T15:56:54;3.58;;;2.58;;
55417;SDS011;41287;47.554;7.844;2023-02-15T15:59:25;3.72;;;2.50;;
55417;SDS011;41287;47.554;7.844;2023-02-15T16:01:54;3.43;;;2.23;;
55417;SDS011;41287;47.554;7.844;2023-02-15T16:04:24;2.65;;;2.10;;
55417;SDS011;41287;47.554;7.844;2023-02-15T16:06:55;2.90;;;1.88;;
55417;SDS011;41287;47.554;7.844;2023-02-15T16:09:22;2.63;;;2.00;;
55417;SDS011;41287;47.554;7.844;2023-02-15T16:11:50;3.45;;;1.95;;
55417;SDS011;41287;47.554;7.844;2023-02-15T16:14:37;2.65;;;2.10;;
55417;SDS011;41287;47.554;7.844;2023-02-15T16:17:05;3.22;;;2.28;;
55417;SDS011;41287;47.554;7.844;2023-02-15T16:19:37;2.75;;;2.00;;
55417;SDS011;41287;47.554;7.844;2023-02-15T16:22:08;3.70;;;2.33;;
55417;SDS011;41287;47.554;7.844;2023-02-15T16:24:42;2.08;;;1.55;;
55417;SDS011;41287;47.554;7.844;2023-02-15T16:29:56;3.42;;;2.22;;
55417;SDS011;41287;47.554;7.844;2023-02-15T16:32:24;3.65;;;2.05;;
55417;SDS011;41287;47.554;7.844;2023-02-15T16:34:52;2.50;;;1.90;;
55417;SDS011;41287;47.554;7.844;2023-02-15T16:37:18;3.17;;;2.35;;
55417;SDS011;41287;47.554;7.844;2023-02-15T16:39:48;3.35;;;1.90;;
55417;SDS011;41287;47.554;7.844;2023-02-15T16:42:13;2.42;;;2.00;;
55417;SDS011;41287;47.554;7.844;2023-02-15T16:44:40;3.55;;;2.45;;
55417;SDS011;41287;47.554;7.844;2023-02-15T16:47:08;3.38;;;1.85;;
55417;SDS011;41287;47.554;7.844;2023-02-15T16:49:42;3.55;;;2.38;;
55417;SDS011;41287;47.554;7.844;2023-02-15T16:52:12;2.35;;;1.75;;
55417;SDS011;41287;47.554;7.844;2023-02-15T16:54:43;2.58;;;1.80;;
55417;SDS011;41287;47.554;7.844;2023-02-15T16:57:16;2.65;;;1.77;;
55417;SDS011;41287;47.554;7.844;2023-02-15T16:59:46;3.30;;;2.00;;
55417;SDS011;41287;47.554;7.844;2023-02-15T17:02:16;2.95;;;2.10;;
55417;SDS011;41287;47.554;7.844;2023-02-15T17:04:43;4.07;;;2.35;;
55417;SDS011;41287;47.554;7.844;2023-02-15T17:07:16;3.33;;;1.98;;
55417;SDS011;41287;47.554;7.844;2023-02-15T17:09:50;2.78;;;2.03;;
55417;SDS011;41287;47.554;7.844;2023-02-15T17:15:26;2.38;;;1.85;;
55417;SDS011;41287;47.554;7.844;2023-02-15T17:18:01;2.70;;;1.88;;
55417;SDS011;41287;47.554;7.844;2023-02-15T17:20:35;2.15;;;1.80;;
55417;SDS011;41287;47.554;7.844;2023-02-15T17:23:03;3.05;;;1.50;;
55417;SDS011;41287;47.554;7.844;2023-02-15T17:25:36;3.20;;;2.10;;
55417;SDS011;41287;47.554;7.844;2023-02-15T17:28:15;2.35;;;1.77;;
55417;SDS011;41287;47.554;7.844;2023-02-15T17:30:49;2.20;;;1.63;;
55417;SDS011;41287;47.554;7.844;2023-02-15T17:33:35;2.53;;;1.77;;
55417;SDS011;41287;47.554;7.844;2023-02-15T17:36:04;3.05;;;2.10;;
55417;SDS011;41287;47.554;7.844;2023-02-15T17:38:31;2.42;;;1.95;;
55417;SDS011;41287;47.554;7.844;2023-02-15T17:40:57;3.20;;;2.20;;
55417;SDS011;41287;47.554;7.844;2023-02-15T17:43:25;3.50;;;2.08;;
55417;SDS011;41287;47.554;7.844;2023-02-15T17:45:51;3.13;;;2.30;;
55417;SDS011;41287;47.554;7.844;2023-02-15T17:51:03;3.08;;;2.10;;
55417;SDS011;41287;47.554;7.844;2023-02-15T17:53:30;4.00;;;2.30;;
55417;SDS011;41287;47.554;7.844;2023-02-15T17:55:56;3.28;;;2.45;;
55417;SDS011;41287;47.554;7.844;2023-02-15T17:58:22;3.60;;;2.53;;
55417;SDS011;41287;47.554;7.844;2023-02-15T18:00:51;3.42;;;2.50;;
55417;SDS011;41287;47.554;7.844;2023-02-15T18:06:23;3.75;;;2.10;;